sensor_id;sensor_type;location;lat;lon;timestamp;P1;P2;P0
77974;PMS5003;67164;51.202;0.278;2023-03-14T00:00:51;3;3;
77974;PMS5003;67164;51.202;0.278;2023-03-14T00:03:16;4;3;
77974;PMS5003;67164;51.202;0.278;2023-03-14T00:05:42;1;1;
77974;PMS5003;67164;51.202;0.278;2023-03-14T00:08:08;4;2;
77974;PMS5003;67164;51.202;0.278;2023-03-14T00:10:35;6;4;
77974;PMS5003;67164;51.202;0.278;2023-03-14T00:12:59;1;1;
77974;PMS5003;67164;51.202;0.278;2023-03-14T00:15:25;5;4;
77974;PMS5003;67164;51.202;0.278;2023-03-14T00:17:51;5;4;
77974;PMS5003;67164;51.202;0.278;2023-03-14T00:20:17;4;3;
77974;PMS5003;67164;51.202;0.278;2023-03-14T00:22:42;3;0;
77974;PMS5003;67164;51.202;0.278;2023-03-14T00:25:09;3;2;
77974;PMS5003;67164;51.202;0.278;2023-03-14T00:27:34;3;1;
77974;PMS5003;67164;51.202;0.278;2023-03-14T00:29:59;5;1;
77974;PMS5003;67164;51.202;0.278;2023-03-14T00:32:25;2;1;
77974;PMS5003;67164;51.202;0.278;2023-03-14T00:34:51;3;3;
77974;PMS5003;67164;51.202;0.278;2023-03-14T00:37:17;3;1;
77974;PMS5003;67164;51.202;0.278;2023-03-14T00:39:43;5;2;
77974;PMS5003;67164;51.202;0.278;2023-03-14T00:42:08;5;5;
77974;PMS5003;67164;51.202;0.278;2023-03-14T00:44:34;6;3;
77974;PMS5003;67164;51.202;0.278;2023-03-14T00:47:00;2;0;
77974;PMS5003;67164;51.202;0.278;2023-03-14T00:49:26;3;3;
77974;PMS5003;67164;51.202;0.278;2023-03-14T00:51:52;6;3;
77974;PMS5003;67164;51.202;0.278;2023-03-14T00:54:17;9;1;
77974;PMS5003;67164;51.202;0.278;2023-03-14T00:56:43;2;2;
77974;PMS5003;67164;51.202;0.278;2023-03-14T00:59:09;4;2;
77974;PMS5003;67164;51.202;0.278;2023-03-14T01:01:35;4;3;
77974;PMS5003;67164;51.202;0.278;2023-03-14T01:04:01;6;3;
77974;PMS5003;67164;51.202;0.278;2023-03-14T01:06:27;1;0;
77974;PMS5003;67164;51.202;0.278;2023-03-14T01:08:53;6;4;
77974;PMS5003;67164;51.202;0.278;2023-03-14T01:11:19;5;2;
77974;PMS5003;67164;51.202;0.278;2023-03-14T01:13:44;3;2;
77974;PMS5003;67164;51.202;0.278;2023-03-14T01:16:10;2;2;
77974;PMS5003;67164;51.202;0.278;2023-03-14T01:18:36;3;1;
77974;PMS5003;67164;51.202;0.278;2023-03-14T01:21:02;3;2;
77974;PMS5003;67164;51.202;0.278;2023-03-14T01:23:27;2;2;
77974;PMS5003;67164;51.202;0.278;2023-03-14T01:25:53;2;2;
77974;PMS5003;67164;51.202;0.278;2023-03-14T01:28:19;2;0;
77974;PMS5003;67164;51.202;0.278;2023-03-14T01:30:45;4;3;
77974;PMS5003;67164;51.202;0.278;2023-03-14T01:33:11;2;2;
77974;PMS5003;67164;51.202;0.278;2023-03-14T01:35:36;3;2;
77974;PMS5003;67164;51.202;0.278;2023-03-14T01:38:02;2;2;
77974;PMS5003;67164;51.202;0.278;2023-03-14T01:40:28;1;1;
77974;PMS5003;67164;51.202;0.278;2023-03-14T01:42:54;3;2;
77974;PMS5003;67164;51.202;0.278;2023-03-14T01:47:46;3;1;
77974;PMS5003;67164;51.202;0.278;2023-03-14T01:50:12;2;1;
77974;PMS5003;67164;51.202;0.278;2023-03-14T01:52:38;2;1;
77974;PMS5003;67164;51.202;0.278;2023-03-14T01:55:03;2;2;
77974;PMS5003;67164;51.202;0.278;2023-03-14T01:57:30;2;2;
77974;PMS5003;67164;51.202;0.278;2023-03-14T01:59:55;3;1;
77974;PMS5003;67164;51.202;0.278;2023-03-14T02:02:20;2;2;
77974;PMS5003;67164;51.202;0.278;2023-03-14T02:04:46;0;0;
77974;PMS5003;67164;51.202;0.278;2023-03-14T02:07:13;2;2;
77974;PMS5003;67164;51.202;0.278;2023-03-14T02:09:38;1;1;
77974;PMS5003;67164;51.202;0.278;2023-03-14T02:12:04;0;0;
77974;PMS5003;67164;51.202;0.278;2023-03-14T02:14:30;3;2;
77974;PMS5003;67164;51.202;0.278;2023-03-14T02:16:55;0;0;
77974;PMS5003;67164;51.202;0.278;2023-03-14T02:19:23;1;0;
77974;PMS5003;67164;51.202;0.278;2023-03-14T02:21:48;1;1;
77974;PMS5003;67164;51.202;0.278;2023-03-14T02:24:15;1;1;
77974;PMS5003;67164;51.202;0.278;2023-03-14T02:26:39;1;1;
77974;PMS5003;67164;51.202;0.278;2023-03-14T02:29:04;2;1;
77974;PMS5003;67164;51.202;0.278;2023-03-14T02:31:30;0;0;
77974;PMS5003;67164;51.202;0.278;2023-03-14T02:33:56;1;1;
77974;PMS5003;67164;51.202;0.278;2023-03-14T02:36:22;0;0;
77974;PMS5003;67164;51.202;0.278;2023-03-14T02:38:50;0;0;
77974;PMS5003;67164;51.202;0.278;2023-03-14T02:41:13;2;1;
77974;PMS5003;67164;51.202;0.278;2023-03-14T02:43:40;1;1;
77974;PMS5003;67164;51.202;0.278;2023-03-14T02:46:05;0;0;
77974;PMS5003;67164;51.202;0.278;2023-03-14T02:48:32;0;0;
77974;PMS5003;67164;51.202;0.278;2023-03-14T02:50:57;1;1;
77974;PMS5003;67164;51.202;0.278;2023-03-14T02:53:25;1;0;
77974;PMS5003;67164;51.202;0.278;2023-03-14T02:55:48;1;1;
77974;PMS5003;67164;51.202;0.278;2023-03-14T02:58:14;1;1;
77974;PMS5003;67164;51.202;0.278;2023-03-14T03:00:40;0;0;
77974;PMS5003;67164;51.202;0.278;2023-03-14T03:03:06;0;0;
77974;PMS5003;67164;51.202;0.278;2023-03-14T03:05:32;0;0;
77974;PMS5003;67164;51.202;0.278;2023-03-14T03:07:57;0;0;
77974;PMS5003;67164;51.202;0.278;2023-03-14T03:10:23;0;0;
77974;PMS5003;67164;51.202;0.278;2023-03-14T03:12:49;2;1;
77974;PMS5003;67164;51.202;0.278;2023-03-14T03:15:15;0;0;
77974;PMS5003;67164;51.202;0.278;2023-03-14T03:17:41;1;1;
77974;PMS5003;67164;51.202;0.278;2023-03-14T03:20:07;3;2;
77974;PMS5003;67164;51.202;0.278;2023-03-14T03:22:32;1;1;
77974;PMS5003;67164;51.202;0.278;2023-03-14T03:24:58;1;1;
77974;PMS5003;67164;51.202;0.278;2023-03-14T03:27:24;1;0;
77974;PMS5003;67164;51.202;0.278;2023-03-14T03:29:49;1;1;
77974;PMS5003;67164;51.202;0.278;2023-03-14T03:32:15;0;0;
77974;PMS5003;67164;51.202;0.278;2023-03-14T03:34:41;1;1;
77974;PMS5003;67164;51.202;0.278;2023-03-14T03:37:07;1;0;
77974;PMS5003;67164;51.202;0.278;2023-03-14T03:39:33;0;0;
77974;PMS5003;67164;51.202;0.278;2023-03-14T03:41:58;2;0;
77974;PMS5003;67164;51.202;0.278;2023-03-14T03:44:24;0;0;
77974;PMS5003;67164;51.202;0.278;2023-03-14T03:46:50;1;1;
77974;PMS5003;67164;51.202;0.278;2023-03-14T03:49:16;2;0;
77974;PMS5003;67164;51.202;0.278;2023-03-14T03:51:42;1;0;
77974;PMS5003;67164;51.202;0.278;2023-03-14T03:54:07;0;0;
77974;PMS5003;67164;51.202;0.278;2023-03-14T03:56:33;0;0;
77974;PMS5003;67164;51.202;0.278;2023-03-14T03:58:59;1;1;
77974;PMS5003;67164;51.202;0.278;2023-03-14T04:01:25;0;0;
77974;PMS5003;67164;51.202;0.278;2023-03-14T04:03:51;0;0;
77974;PMS5003;67164;51.202;0.278;2023-03-14T04:06:17;0;0;
77974;PMS5003;67164;51.202;0.278;2023-03-14T04:08:42;0;0;
77974;PMS5003;67164;51.202;0.278;2023-03-14T04:11:08;0;0;
77974;PMS5003;67164;51.202;0.278;2023-03-14T04:13:34;0;0;
77974;PMS5003;67164;51.202;0.278;2023-03-14T04:16:00;0;0;
77974;PMS5003;67164;51.202;0.278;2023-03-14T04:18:26;3;1;
77974;PMS5003;67164;51.202;0.278;2023-03-14T04:20:52;0;0;
77974;PMS5003;67164;51.202;0.278;2023-03-14T04:23:17;0;0;
77974;PMS5003;67164;51.202;0.278;2023-03-14T04:25:43;0;0;
77974;PMS5003;67164;51.202;0.278;2023-03-14T04:28:09;0;0;
77974;PMS5003;67164;51.202;0.278;2023-03-14T04:30:35;0;0;
77974;PMS5003;67164;51.202;0.278;2023-03-14T04:33:01;1;1;
77974;PMS5003;67164;51.202;0.278;2023-03-14T04:35:26;1;1;
77974;PMS5003;67164;51.202;0.278;2023-03-14T04:37:52;2;1;
77974;PMS5003;67164;51.202;0.278;2023-03-14T04:40:18;1;1;
77974;PMS5003;67164;51.202;0.278;2023-03-14T04:42:44;0;0;
77974;PMS5003;67164;51.202;0.278;2023-03-14T04:45:09;2;0;
77974;PMS5003;67164;51.202;0.278;2023-03-14T04:47:35;0;0;
77974;PMS5003;67164;51.202;0.278;2023-03-14T04:50:01;1;1;
77974;PMS5003;67164;51.202;0.278;2023-03-14T04:52:27;0;0;
77974;PMS5003;67164;51.202;0.278;2023-03-14T04:54:53;1;1;
77974;PMS5003;67164;51.202;0.278;2023-03-14T04:57:18;1;1;
77974;PMS5003;67164;51.202;0.278;2023-03-14T04:59:44;0;0;
77974;PMS5003;67164;51.202;0.278;2023-03-14T05:02:10;1;0;
77974;PMS5003;67164;51.202;0.278;2023-03-14T05:04:36;1;1;
77974;PMS5003;67164;51.202;0.278;2023-03-14T05:07:01;0;0;
77974;PMS5003;67164;51.202;0.278;2023-03-14T05:09:27;3;1;
77974;PMS5003;67164;51.202;0.278;2023-03-14T05:11:53;0;0;
77974;PMS5003;67164;51.202;0.278;2023-03-14T05:14:19;0;0;
77974;PMS5003;67164;51.202;0.278;2023-03-14T05:16:45;2;1;
77974;PMS5003;67164;51.202;0.278;2023-03-14T05:19:10;1;1;
77974;PMS5003;67164;51.202;0.278;2023-03-14T05:21:36;2;0;
77974;PMS5003;67164;51.202;0.278;2023-03-14T05:24:02;3;0;
77974;PMS5003;67164;51.202;0.278;2023-03-14T05:26:28;2;1;
77974;PMS5003;67164;51.202;0.278;2023-03-14T05:28:54;0;0;
77974;PMS5003;67164;51.202;0.278;2023-03-14T05:31:20;3;0;
77974;PMS5003;67164;51.202;0.278;2023-03-14T05:33:45;0;0;
77974;PMS5003;67164;51.202;0.278;2023-03-14T05:36:11;1;1;
77974;PMS5003;67164;51.202;0.278;2023-03-14T05:38:37;1;1;
77974;PMS5003;67164;51.202;0.278;2023-03-14T05:41:03;1;1;
77974;PMS5003;67164;51.202;0.278;2023-03-14T05:43:29;2;0;
77974;PMS5003;67164;51.202;0.278;2023-03-14T05:45:55;1;1;
77974;PMS5003;67164;51.202;0.278;2023-03-14T05:48:20;1;1;
77974;PMS5003;67164;51.202;0.278;2023-03-14T05:50:46;1;1;
77974;PMS5003;67164;51.202;0.278;2023-03-14T05:53:12;0;0;
77974;PMS5003;67164;51.202;0.278;2023-03-14T05:55:38;0;0;
77974;PMS5003;67164;51.202;0.278;2023-03-14T05:58:03;1;1;
77974;PMS5003;67164;51.202;0.278;2023-03-14T06:00:29;0;0;
77974;PMS5003;67164;51.202;0.278;2023-03-14T06:02:55;1;1;
77974;PMS5003;67164;51.202;0.278;2023-03-14T06:05:21;2;1;
77974;PMS5003;67164;51.202;0.278;2023-03-14T06:07:47;2;2;
77974;PMS5003;67164;51.202;0.278;2023-03-14T06:10:13;0;0;
77974;PMS5003;67164;51.202;0.278;2023-03-14T06:12:38;0;0;
77974;PMS5003;67164;51.202;0.278;2023-03-14T06:15:05;1;1;
77974;PMS5003;67164;51.202;0.278;2023-03-14T06:17:30;0;0;
77974;PMS5003;67164;51.202;0.278;2023-03-14T06:19:56;0;0;
77974;PMS5003;67164;51.202;0.278;2023-03-14T06:22:22;0;0;
77974;PMS5003;67164;51.202;0.278;2023-03-14T06:24:47;1;1;
77974;PMS5003;67164;51.202;0.278;2023-03-14T06:27:13;1;1;
77974;PMS5003;67164;51.202;0.278;2023-03-14T06:29:40;2;1;
77974;PMS5003;67164;51.202;0.278;2023-03-14T06:32:05;1;1;
77974;PMS5003;67164;51.202;0.278;2023-03-14T06:34:31;1;1;
77974;PMS5003;67164;51.202;0.278;2023-03-14T06:36:57;1;1;
77974;PMS5003;67164;51.202;0.278;2023-03-14T06:39:23;1;0;
77974;PMS5003;67164;51.202;0.278;2023-03-14T06:41:49;3;2;
77974;PMS5003;67164;51.202;0.278;2023-03-14T06:44:14;1;1;
77974;PMS5003;67164;51.202;0.278;2023-03-14T06:46:40;1;1;
77974;PMS5003;67164;51.202;0.278;2023-03-14T06:49:06;3;3;
77974;PMS5003;67164;51.202;0.278;2023-03-14T06:51:32;3;3;
77974;PMS5003;67164;51.202;0.278;2023-03-14T06:53:57;2;2;
77974;PMS5003;67164;51.202;0.278;2023-03-14T06:56:23;2;2;
77974;PMS5003;67164;51.202;0.278;2023-03-14T06:58:49;1;1;
77974;PMS5003;67164;51.202;0.278;2023-03-14T07:01:17;2;1;
77974;PMS5003;67164;51.202;0.278;2023-03-14T07:03:41;2;1;
77974;PMS5003;67164;51.202;0.278;2023-03-14T07:06:07;4;1;
77974;PMS5003;67164;51.202;0.278;2023-03-14T07:08:32;1;1;
77974;PMS5003;67164;51.202;0.278;2023-03-14T07:10:59;1;1;
77974;PMS5003;67164;51.202;0.278;2023-03-14T07:13:24;3;1;
77974;PMS5003;67164;51.202;0.278;2023-03-14T07:15:50;3;3;
77974;PMS5003;67164;51.202;0.278;2023-03-14T07:18:16;2;2;
77974;PMS5003;67164;51.202;0.278;2023-03-14T07:20:42;1;1;
77974;PMS5003;67164;51.202;0.278;2023-03-14T07:23:07;0;0;
77974;PMS5003;67164;51.202;0.278;2023-03-14T07:25:33;1;1;
77974;PMS5003;67164;51.202;0.278;2023-03-14T07:27:59;3;1;
77974;PMS5003;67164;51.202;0.278;2023-03-14T07:30:25;1;1;
77974;PMS5003;67164;51.202;0.278;2023-03-14T07:32:51;2;1;
77974;PMS5003;67164;51.202;0.278;2023-03-14T07:35:17;1;1;
77974;PMS5003;67164;51.202;0.278;2023-03-14T07:37:42;2;0;
77974;PMS5003;67164;51.202;0.278;2023-03-14T07:40:09;1;1;
77974;PMS5003;67164;51.202;0.278;2023-03-14T07:42:34;2;1;
77974;PMS5003;67164;51.202;0.278;2023-03-14T07:45:00;1;1;
77974;PMS5003;67164;51.202;0.278;2023-03-14T07:47:26;1;1;
77974;PMS5003;67164;51.202;0.278;2023-03-14T07:49:52;0;0;
77974;PMS5003;67164;51.202;0.278;2023-03-14T07:52:17;1;1;
77974;PMS5003;67164;51.202;0.278;2023-03-14T07:54:43;0;0;
77974;PMS5003;67164;51.202;0.278;2023-03-14T07:57:09;1;1;
77974;PMS5003;67164;51.202;0.278;2023-03-14T07:59:35;0;0;
77974;PMS5003;67164;51.202;0.278;2023-03-14T08:02:01;1;1;
77974;PMS5003;67164;51.202;0.278;2023-03-14T08:04:26;1;1;
77974;PMS5003;67164;51.202;0.278;2023-03-14T08:06:52;1;1;
77974;PMS5003;67164;51.202;0.278;2023-03-14T08:09:18;0;0;
77974;PMS5003;67164;51.202;0.278;2023-03-14T08:11:44;2;1;
77974;PMS5003;67164;51.202;0.278;2023-03-14T08:14:10;0;0;
77974;PMS5003;67164;51.202;0.278;2023-03-14T08:16:35;1;1;
77974;PMS5003;67164;51.202;0.278;2023-03-14T08:19:01;0;0;
77974;PMS5003;67164;51.202;0.278;2023-03-14T08:21:27;1;1;
77974;PMS5003;67164;51.202;0.278;2023-03-14T08:23:53;1;0;
77974;PMS5003;67164;51.202;0.278;2023-03-14T08:26:19;1;1;
77974;PMS5003;67164;51.202;0.278;2023-03-14T08:28:45;0;0;
77974;PMS5003;67164;51.202;0.278;2023-03-14T08:31:10;0;0;
77974;PMS5003;67164;51.202;0.278;2023-03-14T08:33:36;1;0;
77974;PMS5003;67164;51.202;0.278;2023-03-14T08:36:02;3;1;
77974;PMS5003;67164;51.202;0.278;2023-03-14T08:38:28;2;2;
77974;PMS5003;67164;51.202;0.278;2023-03-14T08:40:56;1;1;
77974;PMS5003;67164;51.202;0.278;2023-03-14T08:43:20;0;0;
77974;PMS5003;67164;51.202;0.278;2023-03-14T08:45:45;2;0;
77974;PMS5003;67164;51.202;0.278;2023-03-14T08:48:11;2;0;
77974;PMS5003;67164;51.202;0.278;2023-03-14T08:50:37;2;2;
77974;PMS5003;67164;51.202;0.278;2023-03-14T08:53:03;1;1;
77974;PMS5003;67164;51.202;0.278;2023-03-14T08:55:29;1;1;
77974;PMS5003;67164;51.202;0.278;2023-03-14T08:57:54;0;0;
77974;PMS5003;67164;51.202;0.278;2023-03-14T09:00:20;1;1;
77974;PMS5003;67164;51.202;0.278;2023-03-14T09:02:46;0;0;
77974;PMS5003;67164;51.202;0.278;2023-03-14T09:05:13;1;1;
77974;PMS5003;67164;51.202;0.278;2023-03-14T09:07:38;2;1;
77974;PMS5003;67164;51.202;0.278;2023-03-14T09:10:04;1;1;
77974;PMS5003;67164;51.202;0.278;2023-03-14T09:12:30;2;0;
77974;PMS5003;67164;51.202;0.278;2023-03-14T09:14:55;0;0;
77974;PMS5003;67164;51.202;0.278;2023-03-14T09:17:21;0;0;
77974;PMS5003;67164;51.202;0.278;2023-03-14T09:19:47;0;0;
77974;PMS5003;67164;51.202;0.278;2023-03-14T09:22:13;2;2;
77974;PMS5003;67164;51.202;0.278;2023-03-14T09:24:39;0;0;
77974;PMS5003;67164;51.202;0.278;2023-03-14T09:27:05;0;0;
77974;PMS5003;67164;51.202;0.278;2023-03-14T09:29:31;2;0;
77974;PMS5003;67164;51.202;0.278;2023-03-14T09:31:56;0;0;
77974;PMS5003;67164;51.202;0.278;2023-03-14T09:34:22;0;0;
77974;PMS5003;67164;51.202;0.278;2023-03-14T09:36:48;0;0;
77974;PMS5003;67164;51.202;0.278;2023-03-14T09:39:14;1;1;
77974;PMS5003;67164;51.202;0.278;2023-03-14T09:41:40;0;0;
77974;PMS5003;67164;51.202;0.278;2023-03-14T09:44:06;1;1;
77974;PMS5003;67164;51.202;0.278;2023-03-14T09:46:31;3;1;
77974;PMS5003;67164;51.202;0.278;2023-03-14T09:48:57;0;0;
77974;PMS5003;67164;51.202;0.278;2023-03-14T09:51:23;3;0;
77974;PMS5003;67164;51.202;0.278;2023-03-14T09:53:49;1;1;
77974;PMS5003;67164;51.202;0.278;2023-03-14T09:56:16;1;1;
77974;PMS5003;67164;51.202;0.278;2023-03-14T09:58:40;4;1;
77974;PMS5003;67164;51.202;0.278;2023-03-14T10:01:07;0;0;
77974;PMS5003;67164;51.202;0.278;2023-03-14T10:03:32;0;0;
77974;PMS5003;67164;51.202;0.278;2023-03-14T10:05:58;2;1;
77974;PMS5003;67164;51.202;0.278;2023-03-14T10:08:23;1;1;
77974;PMS5003;67164;51.202;0.278;2023-03-14T10:10:49;0;0;
77974;PMS5003;67164;51.202;0.278;2023-03-14T10:13:16;1;1;
77974;PMS5003;67164;51.202;0.278;2023-03-14T10:15:41;1;1;
77974;PMS5003;67164;51.202;0.278;2023-03-14T10:18:10;0;0;
77974;PMS5003;67164;51.202;0.278;2023-03-14T10:20:33;0;0;
77974;PMS5003;67164;51.202;0.278;2023-03-14T10:22:58;0;0;
77974;PMS5003;67164;51.202;0.278;2023-03-14T10:25:26;2;0;
77974;PMS5003;67164;51.202;0.278;2023-03-14T10:27:49;0;0;
77974;PMS5003;67164;51.202;0.278;2023-03-14T10:32:42;0;0;
77974;PMS5003;67164;51.202;0.278;2023-03-14T10:35:11;2;0;
77974;PMS5003;67164;51.202;0.278;2023-03-14T10:37:33;1;1;
77974;PMS5003;67164;51.202;0.278;2023-03-14T10:39:59;1;1;
77974;PMS5003;67164;51.202;0.278;2023-03-14T10:42:25;0;0;
77974;PMS5003;67164;51.202;0.278;2023-03-14T10:44:53;0;0;
77974;PMS5003;67164;51.202;0.278;2023-03-14T10:47:17;0;0;
77974;PMS5003;67164;51.202;0.278;2023-03-14T10:49:42;0;0;
77974;PMS5003;67164;51.202;0.278;2023-03-14T10:52:13;1;1;
77974;PMS5003;67164;51.202;0.278;2023-03-14T10:54:33;0;0;
77974;PMS5003;67164;51.202;0.278;2023-03-14T10:57:00;2;2;
77974;PMS5003;67164;51.202;0.278;2023-03-14T10:59:25;1;1;
77974;PMS5003;67164;51.202;0.278;2023-03-14T11:01:53;1;1;
77974;PMS5003;67164;51.202;0.278;2023-03-14T11:04:21;0;0;
77974;PMS5003;67164;51.202;0.278;2023-03-14T11:06:43;1;1;
77974;PMS5003;67164;51.202;0.278;2023-03-14T11:09:11;1;1;
77974;PMS5003;67164;51.202;0.278;2023-03-14T11:11:34;0;0;
77974;PMS5003;67164;51.202;0.278;2023-03-14T11:14:03;1;1;
77974;PMS5003;67164;51.202;0.278;2023-03-14T11:16:27;0;0;
77974;PMS5003;67164;51.202;0.278;2023-03-14T11:18:56;2;2;
77974;PMS5003;67164;51.202;0.278;2023-03-14T11:21:19;0;0;
77974;PMS5003;67164;51.202;0.278;2023-03-14T11:23:46;2;2;
77974;PMS5003;67164;51.202;0.278;2023-03-14T11:26:13;2;2;
77974;PMS5003;67164;51.202;0.278;2023-03-14T11:28:35;1;0;
77974;PMS5003;67164;51.202;0.278;2023-03-14T11:31:02;1;1;
77974;PMS5003;67164;51.202;0.278;2023-03-14T11:33:27;3;3;
77974;PMS5003;67164;51.202;0.278;2023-03-14T11:35:54;3;1;
77974;PMS5003;67164;51.202;0.278;2023-03-14T11:38:27;2;2;
77974;PMS5003;67164;51.202;0.278;2023-03-14T11:40:44;3;1;
77974;PMS5003;67164;51.202;0.278;2023-03-14T11:43:11;2;2;
77974;PMS5003;67164;51.202;0.278;2023-03-14T11:45:36;3;2;
77974;PMS5003;67164;51.202;0.278;2023-03-14T11:48:13;2;2;
77974;PMS5003;67164;51.202;0.278;2023-03-14T11:50:28;2;2;
77974;PMS5003;67164;51.202;0.278;2023-03-14T11:52:53;3;3;
77974;PMS5003;67164;51.202;0.278;2023-03-14T11:55:20;2;2;
77974;PMS5003;67164;51.202;0.278;2023-03-14T11:57:44;1;1;
77974;PMS5003;67164;51.202;0.278;2023-03-14T12:00:14;3;3;
77974;PMS5003;67164;51.202;0.278;2023-03-14T12:02:39;1;1;
77974;PMS5003;67164;51.202;0.278;2023-03-14T12:07:29;2;2;
77974;PMS5003;67164;51.202;0.278;2023-03-14T12:09:53;2;2;
77974;PMS5003;67164;51.202;0.278;2023-03-14T12:12:20;2;2;
77974;PMS5003;67164;51.202;0.278;2023-03-14T12:14:45;2;2;
77974;PMS5003;67164;51.202;0.278;2023-03-14T12:19:37;1;1;
77974;PMS5003;67164;51.202;0.278;2023-03-14T12:22:13;1;1;
77974;PMS5003;67164;51.202;0.278;2023-03-14T12:24:28;4;2;
77974;PMS5003;67164;51.202;0.278;2023-03-14T12:26:54;0;0;
77974;PMS5003;67164;51.202;0.278;2023-03-14T12:29:20;1;1;
77974;PMS5003;67164;51.202;0.278;2023-03-14T12:31:46;2;1;
77974;PMS5003;67164;51.202;0.278;2023-03-14T12:36:51;1;1;
77974;PMS5003;67164;51.202;0.278;2023-03-14T12:39:05;3;2;
77974;PMS5003;67164;51.202;0.278;2023-03-14T12:41:29;3;2;
77974;PMS5003;67164;51.202;0.278;2023-03-14T12:43:55;2;2;
77974;PMS5003;67164;51.202;0.278;2023-03-14T12:46:22;4;1;
77974;PMS5003;67164;51.202;0.278;2023-03-14T12:48:46;2;2;
77974;PMS5003;67164;51.202;0.278;2023-03-14T12:51:13;1;1;
77974;PMS5003;67164;51.202;0.278;2023-03-14T12:53:51;1;1;
77974;PMS5003;67164;51.202;0.278;2023-03-14T12:56:06;0;0;
77974;PMS5003;67164;51.202;0.278;2023-03-14T12:58:31;2;2;
77974;PMS5003;67164;51.202;0.278;2023-03-14T13:00:55;3;1;
77974;PMS5003;67164;51.202;0.278;2023-03-14T13:03:21;3;2;
77974;PMS5003;67164;51.202;0.278;2023-03-14T13:05:52;1;1;
77974;PMS5003;67164;51.202;0.278;2023-03-14T13:08:12;0;0;
77974;PMS5003;67164;51.202;0.278;2023-03-14T13:10:39;4;2;
77974;PMS5003;67164;51.202;0.278;2023-03-14T13:13:09;2;2;
77974;PMS5003;67164;51.202;0.278;2023-03-14T13:15:31;1;1;
77974;PMS5003;67164;51.202;0.278;2023-03-14T13:17:59;1;1;
77974;PMS5003;67164;51.202;0.278;2023-03-14T13:20:22;0;0;
77974;PMS5003;67164;51.202;0.278;2023-03-14T13:22:47;3;3;
77974;PMS5003;67164;51.202;0.278;2023-03-14T13:25:12;1;1;
77974;PMS5003;67164;51.202;0.278;2023-03-14T13:27:38;3;2;
77974;PMS5003;67164;51.202;0.278;2023-03-14T13:30:11;5;2;
77974;PMS5003;67164;51.202;0.278;2023-03-14T13:32:30;3;1;
77974;PMS5003;67164;51.202;0.278;2023-03-14T13:34:56;2;2;
77974;PMS5003;67164;51.202;0.278;2023-03-14T13:37:22;5;2;
77974;PMS5003;67164;51.202;0.278;2023-03-14T13:39:48;1;1;
77974;PMS5003;67164;51.202;0.278;2023-03-14T13:42:14;15;11;
77974;PMS5003;67164;51.202;0.278;2023-03-14T13:44:39;45;29;
77974;PMS5003;67164;51.202;0.278;2023-03-14T13:47:04;60;32;
77974;PMS5003;67164;51.202;0.278;2023-03-14T13:49:30;36;31;
77974;PMS5003;67164;51.202;0.278;2023-03-14T13:51:54;33;26;
77974;PMS5003;67164;51.202;0.278;2023-03-14T13:54:21;47;33;
77974;PMS5003;67164;51.202;0.278;2023-03-14T13:56:45;36;25;
77974;PMS5003;67164;51.202;0.278;2023-03-14T14:01:37;31;25;
77974;PMS5003;67164;51.202;0.278;2023-03-14T14:04:05;31;23;
77974;PMS5003;67164;51.202;0.278;2023-03-14T14:06:27;24;19;
77974;PMS5003;67164;51.202;0.278;2023-03-14T14:08:52;23;15;
77974;PMS5003;67164;51.202;0.278;2023-03-14T14:11:21;15;15;
77974;PMS5003;67164;51.202;0.278;2023-03-14T14:13:43;23;16;
77974;PMS5003;67164;51.202;0.278;2023-03-14T14:16:08;15;12;
77974;PMS5003;67164;51.202;0.278;2023-03-14T14:18:34;23;11;
77974;PMS5003;67164;51.202;0.278;2023-03-14T14:20:59;14;9;
77974;PMS5003;67164;51.202;0.278;2023-03-14T14:23:26;16;9;
77974;PMS5003;67164;51.202;0.278;2023-03-14T14:25:51;13;11;
77974;PMS5003;67164;51.202;0.278;2023-03-14T14:28:17;14;11;
77974;PMS5003;67164;51.202;0.278;2023-03-14T14:30:42;10;8;
77974;PMS5003;67164;51.202;0.278;2023-03-14T14:33:12;10;6;
77974;PMS5003;67164;51.202;0.278;2023-03-14T14:35:34;10;4;
77974;PMS5003;67164;51.202;0.278;2023-03-14T14:37:59;5;5;
77974;PMS5003;67164;51.202;0.278;2023-03-14T14:40:25;6;6;
77974;PMS5003;67164;51.202;0.278;2023-03-14T14:42:50;7;5;
77974;PMS5003;67164;51.202;0.278;2023-03-14T14:45:17;2;2;
77974;PMS5003;67164;51.202;0.278;2023-03-14T14:52:36;3;3;
77974;PMS5003;67164;51.202;0.278;2023-03-14T14:55:00;2;2;
77974;PMS5003;67164;51.202;0.278;2023-03-14T14:57:26;2;2;
77974;PMS5003;67164;51.202;0.278;2023-03-14T14:59:51;4;3;
77974;PMS5003;67164;51.202;0.278;2023-03-14T15:04:42;2;2;
77974;PMS5003;67164;51.202;0.278;2023-03-14T15:07:08;3;3;
77974;PMS5003;67164;51.202;0.278;2023-03-14T15:09:34;2;2;
77974;PMS5003;67164;51.202;0.278;2023-03-14T15:11:59;1;1;
77974;PMS5003;67164;51.202;0.278;2023-03-14T15:14:25;4;2;
77974;PMS5003;67164;51.202;0.278;2023-03-14T15:16:51;3;2;
77974;PMS5003;67164;51.202;0.278;2023-03-14T15:19:19;1;1;
77974;PMS5003;67164;51.202;0.278;2023-03-14T15:21:43;2;2;
77974;PMS5003;67164;51.202;0.278;2023-03-14T15:24:09;2;1;
77974;PMS5003;67164;51.202;0.278;2023-03-14T15:26:34;1;1;
77974;PMS5003;67164;51.202;0.278;2023-03-14T15:29:00;0;0;
77974;PMS5003;67164;51.202;0.278;2023-03-14T15:31:26;1;1;
77974;PMS5003;67164;51.202;0.278;2023-03-14T15:33:52;3;1;
77974;PMS5003;67164;51.202;0.278;2023-03-14T15:36:20;3;1;
77974;PMS5003;67164;51.202;0.278;2023-03-14T15:38:43;3;2;
77974;PMS5003;67164;51.202;0.278;2023-03-14T15:41:09;3;3;
77974;PMS5003;67164;51.202;0.278;2023-03-14T15:43:35;2;0;
77974;PMS5003;67164;51.202;0.278;2023-03-14T15:46:01;4;1;
77974;PMS5003;67164;51.202;0.278;2023-03-14T15:48:27;1;0;
77974;PMS5003;67164;51.202;0.278;2023-03-14T15:50:52;5;2;
77974;PMS5003;67164;51.202;0.278;2023-03-14T15:53:18;1;1;
77974;PMS5003;67164;51.202;0.278;2023-03-14T15:55:44;2;2;
77974;PMS5003;67164;51.202;0.278;2023-03-14T15:58:13;1;1;
77974;PMS5003;67164;51.202;0.278;2023-03-14T16:00:36;2;1;
77974;PMS5003;67164;51.202;0.278;2023-03-14T16:03:01;1;1;
77974;PMS5003;67164;51.202;0.278;2023-03-14T16:05:27;1;1;
77974;PMS5003;67164;51.202;0.278;2023-03-14T16:07:53;1;1;
77974;PMS5003;67164;51.202;0.278;2023-03-14T16:10:19;0;0;
77974;PMS5003;67164;51.202;0.278;2023-03-14T16:12:45;3;3;
77974;PMS5003;67164;51.202;0.278;2023-03-14T16:15:11;2;2;
77974;PMS5003;67164;51.202;0.278;2023-03-14T16:17:36;2;2;
77974;PMS5003;67164;51.202;0.278;2023-03-14T16:20:02;2;2;
77974;PMS5003;67164;51.202;0.278;2023-03-14T16:22:28;1;1;
77974;PMS5003;67164;51.202;0.278;2023-03-14T16:24:54;0;0;
77974;PMS5003;67164;51.202;0.278;2023-03-14T16:27:20;4;4;
77974;PMS5003;67164;51.202;0.278;2023-03-14T16:29:45;1;1;
77974;PMS5003;67164;51.202;0.278;2023-03-14T16:32:11;2;2;
77974;PMS5003;67164;51.202;0.278;2023-03-14T16:34:37;2;2;
77974;PMS5003;67164;51.202;0.278;2023-03-14T16:37:03;2;2;
77974;PMS5003;67164;51.202;0.278;2023-03-14T16:39:28;2;2;
77974;PMS5003;67164;51.202;0.278;2023-03-14T16:41:54;2;2;
77974;PMS5003;67164;51.202;0.278;2023-03-14T16:44:20;3;2;
77974;PMS5003;67164;51.202;0.278;2023-03-14T16:46:46;2;1;
77974;PMS5003;67164;51.202;0.278;2023-03-14T16:49:12;2;2;
77974;PMS5003;67164;51.202;0.278;2023-03-14T16:51:38;0;0;
77974;PMS5003;67164;51.202;0.278;2023-03-14T16:54:03;3;3;
77974;PMS5003;67164;51.202;0.278;2023-03-14T16:56:29;1;1;
77974;PMS5003;67164;51.202;0.278;2023-03-14T16:58:55;2;1;
77974;PMS5003;67164;51.202;0.278;2023-03-14T17:01:21;0;0;